createdAt,value
2016-02-25T00:00:03.599Z,99.99
2016-02-25T00:00:51.492Z,99.99
2016-02-25T00:02:16.559Z,99.99
2016-02-25T00:02:52.326Z,99.99
2016-02-25T00:04:22.426Z,99.99
2016-02-25T00:05:06.270Z,99.99
2016-02-25T00:06:25.509Z,99.99
2016-02-25T00:07:46.949Z,99.99
2016-02-25T00:08:53.420Z,99.99
2016-02-25T00:09:53.455Z,99.99
2016-02-25T00:11:06.394Z,99.99
2016-02-25T00:11:40.726Z,99.99
2016-02-25T00:13:06.416Z,99.99
2016-02-25T00:14:00.574Z,99.99
2016-02-25T00:15:10.219Z,99.99
2016-02-25T00:15:44.549Z,99.99
2016-02-25T00:17:11.630Z,99.99
2016-02-25T00:17:49.523Z,99.99
2016-02-25T00:18:49.525Z,99.99
2016-02-25T00:20:04.700Z,99.99
2016-02-25T00:21:04.718Z,99.99
2016-02-25T00:22:36.036Z,99.99
2016-02-25T00:23:16.443Z,99.99
2016-02-25T00:24:15.054Z,99.99
2016-02-25T00:25:34.263Z,99.99
2016-02-25T00:26:15.060Z,99.99
2016-02-25T00:27:40.769Z,99.99
2016-02-25T00:28:24.724Z,99.99
2016-02-25T00:30:53.214Z,99.99
2016-02-25T00:31:40.514Z,99.99
2016-02-25T00:32:40.517Z,99.99
2016-02-25T00:33:40.519Z,99.99
2016-02-25T00:34:59.725Z,99.99
2016-02-25T00:35:40.556Z,99.99
2016-02-25T00:37:11.886Z,99.99
2016-02-25T00:37:43.640Z,99.99
2016-02-25T00:39:53.426Z,99.99
2016-02-25T00:40:53.428Z,99.99
2016-02-25T00:42:12.650Z,99.99
2016-02-25T00:42:53.465Z,99.99
2016-02-25T00:44:19.124Z,99.99
2016-02-25T00:45:12.674Z,99.99
2016-02-25T00:47:19.163Z,99.99
2016-02-25T00:47:53.698Z,99.99
2016-02-25T00:49:53.531Z,99.99
2016-02-25T00:50:53.580Z,99.99
2016-02-25T00:51:53.536Z,99.99
2016-02-25T00:52:59.930Z,99.99
2016-02-25T00:54:06.307Z,99.99
2016-02-25T00:55:12.826Z,99.99
2016-02-25T00:56:15.890Z,99.99
2016-02-25T00:56:56.706Z,99.99
2016-02-25T00:58:28.024Z,99.99
2016-02-25T00:59:44.089Z,99.99
2016-02-25T01:01:55.079Z,99.99
2016-02-25T01:03:52.053Z,99.99
2016-02-25T01:04:17.568Z,99.99
2016-02-25T01:05:17.337Z,99.99
2016-02-25T01:06:30.092Z,99.99
2016-02-25T01:07:23.611Z,99.99
2016-02-25T01:08:43.051Z,99.99
2016-02-25T01:09:26.944Z,99.99
2016-02-25T01:10:58.259Z,99.99
2016-02-25T01:11:43.043Z,99.99
2016-02-25T01:13:14.124Z,99.99
2016-02-25T01:13:52.408Z,99.99
2016-02-25T01:16:07.850Z,99.99
2016-02-25T01:17:07.650Z,99.99
2016-02-25T01:18:07.622Z,99.99
2016-02-25T01:19:14.124Z,99.99
2016-02-25T01:20:07.674Z,99.99
2016-02-25T01:21:26.867Z,99.99
2016-02-25T01:22:29.963Z,99.99
2016-02-25T01:23:36.466Z,99.99
2016-02-25T01:24:10.763Z,99.99
2016-02-25T01:26:14.330Z,99.99
2016-02-25T01:27:13.865Z,99.99
2016-02-25T01:28:13.883Z,99.99
2016-02-25T01:29:23.654Z,99.99
2016-02-25T01:30:49.298Z,99.99
2016-02-25T01:31:28.300Z,99.99
2016-02-25T01:32:28.006Z,99.99
2016-02-25T01:33:31.134Z,99.99
2016-02-25T01:34:40.449Z,99.99
2016-02-25T01:35:40.498Z,99.99
2016-02-25T01:36:40.673Z,99.99
2016-02-25T01:37:53.473Z,99.99
2016-02-25T01:38:40.725Z,99.99
2016-02-25T01:39:59.712Z,99.99
2016-02-25T01:40:56.387Z,99.99
2016-02-25T01:42:09.078Z,99.99
2016-02-25T01:42:56.970Z,99.99
2016-02-25T01:44:22.039Z,99.99
2016-02-25T01:46:02.682Z,99.99
2016-02-25T01:46:31.403Z,99.99
2016-02-25T01:47:31.421Z,99.99
2016-02-25T01:48:37.736Z,99.99
2016-02-25T01:49:31.474Z,99.99
2016-02-25T01:50:31.680Z,99.99
2016-02-25T01:51:31.448Z,99.99
2016-02-25T01:52:43.997Z,99.99
2016-02-25T01:53:44.203Z,99.99
2016-02-25T01:54:31.471Z,99.99
2016-02-25T01:55:50.693Z,99.99
2016-02-25T01:57:31.573Z,99.99
2016-02-25T01:57:44.745Z,99.99
2016-02-25T01:59:55.016Z,99.99
2016-02-25T02:01:26.349Z,99.99
2016-02-25T02:02:10.302Z,99.99
2016-02-25T02:03:10.321Z,99.99
2016-02-25T02:04:10.574Z,99.99
2016-02-25T02:05:10.358Z,99.99
2016-02-25T02:06:10.399Z,99.99
2016-02-25T02:07:10.400Z,99.99
2016-02-25T02:08:10.999Z,99.99
2016-02-25T02:09:16.835Z,99.99
2016-02-25T02:10:10.566Z,99.99
2016-02-25T02:11:29.633Z,99.99
2016-02-25T02:12:10.446Z,99.99
2016-02-25T02:13:10.417Z,99.99
2016-02-25T02:14:45.469Z,99.99
2016-02-25T02:15:13.532Z,99.99
2016-02-25T02:16:13.550Z,99.99
2016-02-25T02:17:39.024Z,99.99
2016-02-25T02:18:42.386Z,99.99
2016-02-25T02:19:42.389Z,99.99
2016-02-25T02:20:42.408Z,99.99
2016-02-25T02:21:43.020Z,99.99
2016-02-25T02:22:43.038Z,99.99
2016-02-25T02:23:42.712Z,99.99
2016-02-25T02:24:42.465Z,99.99
2016-02-25T02:25:55.234Z,99.99
2016-02-25T02:26:43.079Z,99.99
2016-02-25T02:28:08.207Z,99.99
2016-02-25T02:29:14.351Z,99.99
2016-02-25T02:29:55.151Z,99.99
2016-02-25T02:30:55.184Z,99.99
2016-02-25T02:32:04.750Z,99.99
2016-02-25T02:33:04.737Z,99.99
2016-02-25T02:34:17.490Z,99.99
2016-02-25T02:35:04.820Z,99.99
2016-02-25T02:36:33.560Z,99.99
2016-02-25T02:37:33.578Z,99.99
2016-02-25T02:38:34.237Z,99.99
2016-02-25T02:39:34.240Z,99.99
2016-02-25T02:40:46.399Z,99.99
2016-02-25T02:41:46.355Z,99.99
2016-02-25T02:42:33.639Z,99.99
2016-02-25T02:43:33.658Z,99.99
2016-02-25T02:44:33.691Z,99.99
2016-02-25T02:45:36.833Z,99.99
2016-02-25T02:46:37.103Z,99.99
2016-02-25T02:47:43.121Z,99.99
2016-02-25T02:48:38.280Z,99.99
2016-02-25T02:49:37.079Z,99.99
2016-02-25T02:50:36.879Z,99.99
2016-02-25T02:51:43.147Z,99.99
2016-02-25T02:52:43.181Z,99.99
2016-02-25T02:53:36.902Z,99.99
2016-02-25T02:54:36.968Z,99.99
2016-02-25T02:55:49.658Z,99.99
2016-02-25T02:56:49.676Z,99.99
2016-02-25T02:57:36.991Z,99.99
2016-02-25T02:58:36.962Z,99.99
2016-02-25T02:59:36.965Z,99.99
2016-02-25T03:00:36.967Z,99.99
2016-02-25T03:01:37.033Z,99.99
2016-02-25T03:02:37.004Z,99.99
2016-02-25T03:03:37.086Z,99.99
2016-02-25T03:04:38.478Z,99.99
2016-02-25T03:05:37.034Z,99.99
2016-02-25T03:06:56.239Z,99.99
2016-02-25T03:07:37.085Z,99.99
2016-02-25T03:08:37.073Z,99.99
2016-02-25T03:09:43.356Z,99.99
2016-02-25T03:10:37.125Z,99.99
2016-02-25T03:11:56.316Z,99.99
2016-02-25T03:12:37.130Z,99.99
2016-02-25T03:13:37.117Z,99.99
2016-02-25T03:14:38.776Z,99.99
2016-02-25T03:16:08.452Z,99.99
2016-02-25T03:17:11.516Z,99.99
2016-02-25T03:17:52.332Z,99.99
2016-02-25T03:19:18.021Z,99.99
2016-02-25T03:19:52.383Z,99.99
2016-02-25T03:21:23.668Z,99.99
2016-02-25T03:22:07.545Z,99.99
2016-02-25T03:23:07.549Z,99.99
2016-02-25T03:24:08.207Z,99.99
2016-02-25T03:25:07.601Z,99.99
2016-02-25T03:26:08.993Z,99.99
2016-02-25T03:27:07.590Z,99.99
2016-02-25T03:28:23.404Z,99.99
2016-02-25T03:29:17.142Z,99.99
2016-02-25T03:30:17.175Z,99.99
2016-02-25T03:31:17.179Z,99.99
2016-02-25T03:32:17.181Z,99.99
2016-02-25T03:33:18.606Z,99.99
2016-02-25T03:34:17.203Z,99.99
2016-02-25T03:35:17.206Z,99.99
2016-02-25T03:36:23.489Z,99.99
2016-02-25T03:37:18.711Z,99.99
2016-02-25T03:38:17.245Z,99.99
2016-02-25T03:39:17.341Z,99.99
2016-02-25T03:40:30.002Z,99.99
2016-02-25T03:41:17.299Z,99.99
2016-02-25T03:42:36.289Z,99.99
2016-02-25T03:43:40.027Z,99.99
2016-02-25T03:44:39.998Z,99.99
2016-02-25T03:45:46.500Z,99.99
2016-02-25T03:46:30.221Z,99.99
2016-02-25T03:47:55.927Z,99.99
2016-02-25T03:48:39.821Z,99.99
2016-02-25T03:49:39.933Z,99.99
2016-02-25T03:50:46.107Z,99.99
2016-02-25T03:51:40.063Z,99.99
2016-02-25T03:52:52.628Z,99.99
2016-02-25T03:53:52.600Z,99.99
2016-02-25T03:54:59.087Z,99.99
2016-02-25T03:55:39.887Z,99.99
2016-02-25T03:56:59.107Z,99.99
2016-02-25T03:57:39.939Z,99.99
2016-02-25T03:58:39.926Z,99.99
2016-02-25T04:00:05.615Z,99.99
2016-02-25T04:00:49.587Z,99.99
2016-02-25T04:01:49.668Z,99.99
2016-02-25T04:02:49.562Z,99.99
2016-02-25T04:04:15.251Z,99.99
2016-02-25T04:04:59.114Z,99.99
2016-02-25T04:05:59.150Z,99.99
2016-02-25T04:07:25.013Z,99.99
2016-02-25T04:08:18.328Z,99.99
2016-02-25T04:09:31.053Z,99.99
2016-02-25T04:10:30.461Z,99.99
2016-02-25T04:10:59.164Z,99.99
2016-02-25T04:11:59.183Z,99.99
2016-02-25T04:12:59.419Z,99.99
2016-02-25T04:13:59.203Z,99.99
2016-02-25T04:15:01.784Z,99.99
2016-02-25T04:16:01.866Z,99.99
2016-02-25T04:17:01.821Z,99.99
2016-02-25T04:18:01.855Z,99.99
2016-02-25T04:19:01.827Z,99.99
2016-02-25T04:20:01.845Z,99.99
2016-02-25T04:21:08.129Z,99.99
2016-02-25T04:22:01.865Z,99.99
2016-02-25T04:23:01.868Z,99.99
2016-02-25T04:24:14.637Z,99.99
2016-02-25T04:25:01.920Z,99.99
2016-02-25T04:26:21.110Z,99.99
2016-02-25T04:27:01.927Z,99.99
2016-02-25T04:28:21.148Z,99.99
2016-02-25T04:29:37.512Z,99.99
2016-02-25T04:30:24.543Z,99.99
2016-02-25T04:31:05.343Z,99.99
2016-02-25T04:32:05.595Z,99.99
2016-02-25T04:33:11.739Z,99.99
2016-02-25T04:34:14.820Z,99.99
2016-02-25T04:35:24.369Z,99.99
2016-02-25T04:36:33.797Z,99.99
2016-02-25T04:37:33.800Z,99.99
2016-02-25T04:38:46.552Z,99.99
2016-02-25T04:39:46.539Z,99.99
2016-02-25T04:40:33.854Z,99.99
2016-02-25T04:41:53.045Z,99.99
2016-02-25T04:45:48.289Z,99.99
2016-02-25T04:46:48.292Z,99.99
2016-02-25T04:48:01.045Z,99.99
2016-02-25T04:48:54.610Z,99.99
2016-02-25T04:50:19.644Z,99.99
2016-02-25T04:51:06.569Z,99.99
2016-02-25T04:52:06.791Z,99.99
2016-02-25T04:53:32.279Z,99.99
2016-02-25T04:54:16.404Z,99.99
2016-02-25T04:55:35.363Z,99.99
2016-02-25T04:57:40.665Z,99.99
2016-02-25T04:58:40.684Z,99.99
2016-02-25T05:01:15.971Z,99.99
2016-02-25T05:01:59.879Z,99.99
2016-02-25T05:03:22.179Z,99.99
2016-02-25T05:04:18.823Z,99.99
2016-02-25T05:05:53.843Z,99.99
2016-02-25T05:08:37.867Z,99.99
2016-02-25T05:09:37.854Z,99.99
2016-02-25T05:12:18.719Z,99.99
2016-02-25T05:12:53.315Z,99.99
2016-02-25T05:15:20.618Z,99.99
2016-02-25T05:16:20.683Z,99.99
2016-02-25T05:17:33.375Z,99.99
2016-02-25T05:18:33.394Z,99.99
2016-02-25T05:19:20.691Z,99.99
2016-02-25T05:20:39.884Z,99.99
2016-02-25T05:21:20.697Z,99.99
2016-02-25T05:24:01.502Z,99.99
2016-02-25T05:24:48.738Z,99.99
2016-02-25T05:26:07.944Z,99.99
2016-02-25T05:26:49.353Z,99.99
2016-02-25T05:30:27.486Z,99.99
2016-02-25T05:31:08.302Z,99.99
2016-02-25T05:32:33.993Z,99.99
2016-02-25T05:33:37.044Z,99.99
2016-02-25T05:34:20.982Z,99.99
2016-02-25T05:35:37.627Z,99.99
2016-02-25T05:37:52.804Z,99.99
2016-02-25T05:39:05.776Z,99.99
2016-02-25T05:40:02.357Z,99.99
2016-02-25T05:41:08.860Z,99.99
2016-02-25T05:41:52.722Z,99.99
2016-02-25T05:44:59.292Z,99.99
2016-02-25T05:46:25.201Z,99.99
2016-02-25T05:47:40.378Z,99.99
2016-02-25T05:48:40.396Z,99.99
2016-02-25T05:51:21.542Z,99.99
2016-02-25T05:51:55.874Z,99.99
2016-02-25T05:54:11.051Z,99.99
2016-02-25T05:55:11.084Z,99.99
2016-02-25T05:57:52.436Z,99.99
2016-02-25T06:00:07.630Z,99.99
2016-02-25T06:02:49.168Z,99.99
2016-02-25T06:05:04.346Z,99.99
2016-02-25T06:06:04.365Z,99.99
2016-02-25T06:07:17.101Z,99.99
2016-02-25T06:08:04.417Z,99.99
2016-02-25T06:09:23.590Z,99.99
2016-02-25T06:10:23.594Z,99.99
2016-02-25T06:11:30.081Z,99.99
2016-02-25T06:12:04.428Z,99.99
2016-02-25T06:13:35.745Z,99.99
2016-02-25T06:14:07.511Z,99.99
2016-02-25T06:15:45.109Z,99.99
2016-02-25T06:16:23.375Z,99.99
2016-02-25T06:18:20.365Z,99.99
2016-02-25T06:18:35.993Z,99.99
2016-02-25T06:19:32.949Z,99.99
2016-02-25T06:20:32.952Z,99.99
2016-02-25T06:21:32.858Z,99.99
2016-02-25T06:22:45.707Z,99.99
2016-02-25T06:23:32.991Z,99.99
2016-02-25T06:24:58.681Z,99.99
2016-02-25T06:25:42.558Z,99.99
2016-02-25T06:27:08.233Z,99.99
2016-02-25T06:28:54.770Z,99.99
2016-02-25T06:29:54.726Z,99.99
2016-02-25T06:31:01.010Z,99.99
2016-02-25T06:31:55.371Z,99.99
2016-02-25T06:33:07.546Z,99.99
2016-02-25T06:34:07.518Z,99.99
2016-02-25T06:34:54.895Z,99.99
2016-02-25T06:36:20.492Z,99.99
2016-02-25T06:37:04.541Z,99.99
2016-02-25T06:38:23.778Z,99.99
2016-02-25T06:39:04.562Z,99.99
2016-02-25T06:41:45.445Z,99.99
2016-02-25T06:42:19.773Z,99.99
2016-02-25T06:43:19.792Z,99.99
2016-02-25T06:44:20.434Z,99.99
2016-02-25T06:45:51.159Z,99.99
2016-02-25T06:47:02.147Z,99.99
2016-02-25T06:47:36.540Z,99.99
2016-02-25T06:49:46.092Z,99.99
2016-02-25T06:51:55.645Z,99.99
2016-02-25T06:54:05.181Z,99.99
2016-02-25T06:56:20.498Z,99.99
2016-02-25T06:57:20.533Z,99.99
2016-02-25T06:58:26.770Z,99.99
2016-02-25T06:59:26.767Z,99.99
2016-02-25T07:00:39.695Z,99.99
2016-02-25T07:01:36.307Z,99.99
2016-02-25T07:02:33.042Z,99.99
2016-02-25T07:03:42.569Z,99.99
2016-02-25T07:05:08.521Z,99.99
2016-02-25T07:05:43.837Z,99.99
2016-02-25T07:07:57.738Z,99.99
2016-02-25T07:08:57.768Z,99.99
2016-02-25T07:09:57.753Z,99.99
2016-02-25T07:11:10.504Z,99.99
2016-02-25T07:11:58.380Z,99.99
2016-02-25T07:13:23.490Z,99.99
2016-02-25T07:13:58.413Z,99.99
2016-02-25T07:16:07.463Z,99.99
2016-02-25T07:17:07.482Z,99.99
2016-02-25T07:18:13.858Z,99
2016-02-25T07:19:10.454Z,98.1
2016-02-25T07:20:36.179Z,96.88
2016-02-25T07:21:10.492Z,95.45
2016-02-25T07:23:25.684Z,93.61
2016-02-25T07:24:25.718Z,92.47
2016-02-25T07:25:25.704Z,92.57
2016-02-25T07:26:38.507Z,92.94
2016-02-25T07:27:25.725Z,94.18
2016-02-25T07:28:40.902Z,94.32
2016-02-25T07:29:40.921Z,94.98
2016-02-25T07:31:56.255Z,96.21
2016-02-25T07:32:56.008Z,96.88
2016-02-25T07:33:56.057Z,97.34
2016-02-25T07:34:56.044Z,97.53
2016-02-25T07:35:56.062Z,97.53
2016-02-25T07:37:15.284Z,96.97
2016-02-25T07:37:56.709Z,96.69
2016-02-25T07:39:21.774Z,97.44
2016-02-25T07:40:05.714Z,97.39
2016-02-25T07:41:05.717Z,97.53
2016-02-25T07:42:07.125Z,97.72
2016-02-25T07:43:31.409Z,97.63
2016-02-25T07:44:40.853Z,97.53
2016-02-25T07:45:44.073Z,97.82
2016-02-25T07:47:03.264Z,98.01
2016-02-25T07:47:44.095Z,97.72
2016-02-25T07:49:09.784Z,97.72
2016-02-25T07:49:56.991Z,97.72
2016-02-25T07:51:12.868Z,98.58
2016-02-25T07:51:53.793Z,98.67
2016-02-25T07:53:19.374Z,97.72
2016-02-25T07:54:03.502Z,98.1
2016-02-25T07:55:22.472Z,97.72
2016-02-25T07:57:37.668Z,96.73
2016-02-25T07:58:37.687Z,96.07
2016-02-25T07:59:37.721Z,96.26
2016-02-25T08:00:37.708Z,94.93
2016-02-25T08:01:37.835Z,95.12
2016-02-25T08:02:39.166Z,95.78
2016-02-25T08:03:50.482Z,96.54
2016-02-25T08:04:37.763Z,96.4
2016-02-25T08:05:56.784Z,94.98
2016-02-25T08:06:39.208Z,94.89
2016-02-25T08:08:03.570Z,95.17
2016-02-25T08:08:37.804Z,94.79
2016-02-25T08:10:09.810Z,92.61
2016-02-25T08:10:53.813Z,92.24
2016-02-25T08:11:53.706Z,92.9
2016-02-25T08:12:53.724Z,92.8
2016-02-25T08:13:59.852Z,91.48
2016-02-25T08:15:12.964Z,91.86
2016-02-25T08:15:53.779Z,91.43
2016-02-25T08:17:19.500Z,90.77
2016-02-25T08:17:55.206Z,91.05
2016-02-25T08:19:25.115Z,91.24
2016-02-25T08:19:56.852Z,91.24
2016-02-25T08:20:53.856Z,90.01
2016-02-25T08:22:01.561Z,89.06
2016-02-25T08:22:53.861Z,89.15
2016-02-25T08:23:53.910Z,88.78
2016-02-25T08:25:06.631Z,88.4
2016-02-25T08:26:25.228Z,88.78
2016-02-25T08:26:53.950Z,88.4
2016-02-25T08:27:53.953Z,88.96
2016-02-25T08:31:13.272Z,89.34
2016-02-25T08:32:13.338Z,89.15
2016-02-25T08:33:13.309Z,89.06
2016-02-25T08:34:19.593Z,88.78
2016-02-25T08:35:13.330Z,88.68
2016-02-25T08:36:19.630Z,89.25
2016-02-25T08:37:13.383Z,87.83
2016-02-25T08:38:26.214Z,88.96
2016-02-25T08:39:13.388Z,87.45
2016-02-25T08:40:13.407Z,87.26
2016-02-25T08:41:13.425Z,86.69
2016-02-25T08:42:13.474Z,86.6
2016-02-25T08:43:13.445Z,86.5
2016-02-25T08:44:13.480Z,86.22
2016-02-25T08:45:13.482Z,87.26
2016-02-25T08:46:13.532Z,86.12
2016-02-25T08:47:26.254Z,86.03
2016-02-25T08:48:13.537Z,85.08
2016-02-25T08:49:13.556Z,84.89
2016-02-25T08:50:32.980Z,84.42
2016-02-25T08:51:13.592Z,85.17
2016-02-25T08:52:13.611Z,83.94
2016-02-25T08:53:19.878Z,83.18
2016-02-25T08:54:13.663Z,83.09
2016-02-25T08:55:26.384Z,83
2016-02-25T08:56:13.669Z,82.43
2016-02-25T08:57:13.672Z,81.9
2016-02-25T08:58:26.439Z,81.43
2016-02-25T08:59:13.708Z,80.57
2016-02-25T09:00:32.944Z,80.1
2016-02-25T09:01:16.635Z,80.29
2016-02-25T09:02:36.044Z,80.86
2016-02-25T09:03:23.046Z,81.29
2016-02-25T09:04:47.318Z,82.05
2016-02-25T09:05:56.852Z,82.43
2016-02-25T09:06:40.758Z,82.62
2016-02-25T09:07:50.341Z,82.14
2016-02-25T09:13:07.214Z,79.06
2016-02-25T09:13:41.464Z,78.96
2016-02-25T09:15:12.781Z,78.96
2016-02-25T09:15:51.018Z,78.87
2016-02-25T09:17:22.334Z,79.06
2016-02-25T09:18:03.618Z,78.62
2016-02-25T09:19:26.293Z,77.77
2016-02-25T09:20:10.796Z,77.29
2016-02-25T09:23:19.835Z,76.44
2016-02-25T09:24:19.790Z,75.43
2016-02-25T09:25:35.231Z,74.96
2016-02-25T09:26:35.031Z,75.34
2016-02-25T09:27:48.048Z,74.87
2016-02-25T09:28:35.708Z,74.77
2016-02-25T09:29:49.320Z,75.87
2016-02-25T09:30:35.979Z,76.82
2016-02-25T09:32:06.469Z,77.2
2016-02-25T09:32:35.375Z,77.11
2016-02-25T09:33:35.159Z,77.48
2016-02-25T09:34:41.474Z,77.01
2016-02-25T09:35:35.462Z,77.2
2016-02-25T09:36:35.214Z,78.05
2016-02-25T09:37:47.951Z,78.11
2016-02-25T09:38:35.516Z,78.02
2016-02-25T09:40:00.943Z,78.49
2016-02-25T09:40:36.099Z,78.96
2016-02-25T09:41:35.290Z,78.49
2016-02-25T09:42:44.855Z,78.24
2016-02-25T09:43:44.874Z,78.15
2016-02-25T09:44:44.891Z,77.39
2016-02-25T09:45:57.866Z,76.54
2016-02-25T09:46:44.913Z,77.11
2016-02-25T09:48:04.277Z,76.82
2016-02-25T09:48:45.418Z,77.11
2016-02-25T09:50:16.283Z,75.87
2016-02-25T09:51:00.176Z,75.78
2016-02-25T09:56:39.658Z,72.63
2016-02-25T09:57:42.755Z,71.86
2016-02-25T09:58:52.554Z,71.58
2016-02-25T09:59:52.542Z,72.11
2016-02-25T10:01:05.547Z,71.2
2016-02-25T10:02:23.878Z,71.48
2016-02-25T10:03:07.771Z,71.86
2016-02-25T10:05:23.980Z,71.64
2016-02-25T10:06:36.092Z,71.83
2016-02-25T10:07:25.328Z,71.92
2016-02-25T10:08:23.909Z,72.11
2016-02-25T10:09:23.928Z,72.3
2016-02-25T10:10:55.227Z,72.59
2016-02-25T10:11:39.339Z,71.92
2016-02-25T10:12:39.342Z,72.21
2016-02-25T10:15:27.303Z,72.21
2016-02-25T10:15:56.038Z,72.97
2016-02-25T10:16:56.024Z,74.68
2016-02-25T10:18:11.530Z,74.77
2016-02-25T10:19:11.549Z,74.96
2016-02-25T10:21:54.038Z,75.4
2016-02-25T10:22:28.401Z,75.68
2016-02-25T10:24:43.624Z,76.25
2016-02-25T10:25:43.627Z,77.39
2016-02-25T10:26:43.676Z,78.34
2016-02-25T10:27:43.679Z,76.82
2016-02-25T10:28:43.682Z,76.59
2016-02-25T10:29:43.700Z,77.73
2016-02-25T10:30:43.953Z,78.87
2016-02-25T10:31:43.721Z,78.39
2016-02-25T10:32:43.756Z,77.54
2016-02-25T10:33:43.836Z,78.3
2016-02-25T10:34:43.776Z,78.11
2016-02-25T10:35:43.811Z,78.49
2016-02-25T10:36:44.016Z,77.83
2016-02-25T10:37:56.566Z,78.11
2016-02-25T10:38:50.114Z,77.92
2016-02-25T10:43:21.801Z,77.64
2016-02-25T10:44:21.788Z,77.86
2016-02-25T10:45:21.806Z,78.05
2016-02-25T10:46:31.419Z,78.15
2016-02-25T10:47:57.077Z,78.53
2016-02-25T10:50:25.022Z,78.2
2016-02-25T10:51:12.291Z,78.58
2016-02-25T10:52:27.466Z,78.11
2016-02-25T10:53:27.484Z,78.49
2016-02-25T10:55:43.317Z,76.82
2016-02-25T10:56:43.507Z,76.63
2016-02-25T10:57:49.588Z,75.11
2016-02-25T10:58:43.950Z,74.45
2016-02-25T10:59:56.297Z,74.64
2016-02-25T11:00:56.096Z,74.73
2016-02-25T11:01:43.381Z,74.07
2016-02-25T11:04:20.045Z,73.44
2016-02-25T11:04:54.404Z,72.88
2016-02-25T11:06:20.082Z,71.73
2016-02-25T11:07:03.957Z,71.55
2016-02-25T11:08:26.243Z,72.21
2016-02-25T11:09:13.528Z,72.21
2016-02-25T11:10:32.749Z,72.11
2016-02-25T11:11:29.362Z,72.02
2016-02-25T11:12:55.051Z,71.64
2016-02-25T11:13:42.320Z,71.64
2016-02-25T11:14:58.713Z,72.59
2016-02-25T11:15:52.075Z,73.16
2016-02-25T11:18:00.800Z,72.3
2016-02-25T11:20:48.183Z,71.92
2016-02-25T11:22:10.500Z,72.4
2016-02-25T11:22:26.469Z,72.21
2016-02-25T11:26:20.075Z,73.79
2016-02-25T11:27:20.092Z,73.97
2016-02-25T11:28:45.783Z,73.6
2016-02-25T11:29:26.644Z,73.12
2016-02-25T11:30:51.428Z,72.49
2016-02-25T11:31:38.368Z,72.02
2016-02-25T11:32:57.574Z,71.55
2016-02-25T11:33:41.468Z,72.02
2016-02-25T11:35:07.127Z,72.49
2016-02-25T11:36:03.785Z,73.63
2016-02-25T11:37:16.525Z,72.21
2016-02-25T11:38:04.041Z,72.4
2016-02-25T11:39:22.891Z,71.07
2016-02-25T11:40:07.406Z,71.07
2016-02-25T11:41:33.068Z,70.35
2016-02-25T11:42:20.180Z,69.87
2016-02-25T11:44:22.919Z,69.3
2016-02-25T11:45:22.985Z,69.96
2016-02-25T11:46:54.268Z,69.87
2016-02-25T11:47:58.787Z,69.68
2016-02-25T11:48:39.633Z,69.96
2016-02-25T11:50:05.276Z,70.31
2016-02-25T11:50:49.248Z,71.64
2016-02-25T11:52:11.454Z,71.73
2016-02-25T11:52:55.362Z,71.17
2016-02-25T11:54:10.584Z,71.64
2016-02-25T11:55:10.602Z,71.07
2016-02-25T11:56:23.342Z,71.07
2016-02-25T11:57:23.376Z,70.31
2016-02-25T11:58:23.395Z,69.65
2016-02-25T11:59:36.350Z,69.84
2016-02-25T12:00:29.884Z,69.78
2016-02-25T12:01:45.122Z,68.73
2016-02-25T12:02:36.092Z,68.64
2016-02-25T12:03:54.674Z,68.16
2016-02-25T12:05:04.316Z,69.59
2016-02-25T12:06:30.010Z,69.65
2016-02-25T12:07:39.778Z,70.21
2016-02-25T12:08:55.594Z,71.64
2016-02-25T12:09:36.408Z,71.92
2016-02-25T12:12:23.105Z,70.5
2016-02-25T12:12:51.808Z,69.84
2016-02-25T12:13:51.857Z,69.55
2016-02-25T12:14:51.829Z,68.64
2016-02-25T12:15:58.738Z,67.97
2016-02-25T12:16:51.927Z,68.16
2016-02-25T12:17:51.899Z,66.93
2016-02-25T12:18:52.527Z,66.96
2016-02-25T12:19:51.935Z,66.39
2016-02-25T12:22:32.881Z,64.78
2016-02-25T12:23:07.381Z,64.02
2016-02-25T12:24:39.901Z,64.49
2016-02-25T12:25:18.154Z,64.4
2016-02-25T12:27:15.156Z,64.78
2016-02-25T12:27:27.800Z,65.06
2016-02-25T12:29:43.244Z,65.25
2016-02-25T12:30:43.278Z,65.54
2016-02-25T12:31:56.031Z,65.06
2016-02-25T12:32:43.298Z,66.01
2016-02-25T12:34:02.536Z,65.73
2016-02-25T12:34:46.960Z,65.25
2016-02-25T12:37:23.344Z,63.26
2016-02-25T12:38:54.659Z,64.4
2016-02-25T12:39:38.599Z,65.82
2016-02-25T12:41:04.336Z,64.69
2016-02-25T12:42:50.950Z,66.11
2016-02-25T12:43:51.157Z,65.88
2016-02-25T12:44:51.580Z,66.83
2016-02-25T12:46:03.740Z,66.08
2016-02-25T12:47:03.742Z,67.21
2016-02-25T12:50:51.097Z,64.56
2016-02-25T12:52:00.662Z,64.94
2016-02-25T12:53:26.587Z,65.88
2016-02-25T12:54:36.202Z,66.52
2016-02-25T12:55:20.124Z,66.99
2016-02-25T12:56:20.376Z,68.98
2016-02-25T12:57:20.176Z,69.93
2016-02-25T12:58:45.837Z,70.03
2016-02-25T12:59:36.059Z,70.03
2016-02-25T13:00:29.762Z,69.74
2016-02-25T13:02:01.064Z,71.64
2016-02-25T13:03:04.395Z,71.64
2016-02-25T13:04:04.164Z,71.07
2016-02-25T13:05:04.197Z,70.4
2016-02-25T13:06:16.934Z,68.23
2016-02-25T13:07:04.469Z,68.04
2016-02-25T13:08:23.486Z,68.6
2016-02-25T13:09:29.974Z,68.98
2016-02-25T13:12:14.123Z,70.4
2016-02-25T13:13:14.203Z,69.74
2016-02-25T13:14:48.881Z,68.7
2016-02-25T13:15:46.539Z,68.44
2016-02-25T13:16:46.558Z,67.69
2016-02-25T13:18:01.749Z,65.69
2016-02-25T13:19:01.829Z,64.46
2016-02-25T13:20:14.566Z,64.08
2016-02-25T13:21:02.444Z,64.56
2016-02-25T13:22:27.805Z,64.08
2016-02-25T13:23:15.418Z,63.7
2016-02-25T13:24:31.563Z,63.7
2016-02-25T13:25:12.392Z,65.5
2016-02-25T13:26:43.693Z,65.12
2016-02-25T13:27:27.834Z,64.46
2016-02-25T13:28:27.869Z,62.78
2016-02-25T13:29:40.420Z,63.73
2016-02-25T13:30:29.092Z,63.83
2016-02-25T13:31:46.895Z,61.17
2016-02-25T13:32:38.522Z,59.93
2016-02-25T13:34:09.838Z,60.69
2016-02-25T13:34:51.153Z,61.17
2016-02-25T13:35:48.187Z,62.21
2016-02-25T13:37:03.409Z,62.12
2016-02-25T13:38:03.677Z,62.5
2016-02-25T13:39:03.711Z,61.65
2016-02-25T13:40:09.728Z,61.65
2016-02-25T13:41:09.778Z,61.17
2016-02-25T13:42:22.703Z,59.08
2016-02-25T13:43:22.784Z,59.27
2016-02-25T13:44:29.443Z,59.84
2016-02-25T13:45:03.571Z,61.07
2016-02-25T13:47:00.529Z,62.69
2016-02-25T13:47:38.907Z,62.46
2016-02-25T13:49:10.191Z,62.46
2016-02-25T13:49:54.115Z,61.42
2016-02-25T13:51:13.337Z,62.18
2016-02-25T13:51:57.480Z,63.23
2016-02-25T13:53:00.577Z,61.99
2016-02-25T13:54:26.298Z,62.46
2016-02-25T13:57:09.743Z,63.79
2016-02-25T13:58:54.374Z,64.17
2016-02-25T14:00:07.329Z,63.23
2016-02-25T14:00:58.270Z,62.94
2016-02-25T14:02:17.757Z,63.13
2016-02-25T14:03:14.665Z,63.13
2016-02-25T14:04:14.434Z,62.94
2016-02-25T14:05:27.234Z,63.23
2016-02-25T14:06:20.783Z,63.04
2016-02-25T14:07:14.473Z,62.37
2016-02-25T14:08:14.758Z,62.85
2016-02-25T14:09:40.216Z,61.36
2016-02-25T14:14:37.027Z,57.06
2016-02-25T14:15:36.982Z,57.06
2016-02-25T14:17:08.094Z,58.48
2016-02-25T14:17:46.706Z,57.43
2016-02-25T14:19:12.412Z,58.76
2016-02-25T14:19:56.399Z,58.1
2016-02-25T14:21:22.043Z,56.2
2016-02-25T14:22:32.001Z,55.91
2016-02-25T14:23:16.423Z,56.96
2016-02-25T14:24:26.113Z,58.58
2016-02-25T14:25:51.806Z,60.38
2016-02-25T14:27:54.812Z,60.82
2016-02-25T14:29:41.535Z,61.39
2016-02-25T14:30:10.067Z,61.58
2016-02-25T14:31:10.320Z,61.39
2016-02-25T14:32:23.072Z,60.35
2016-02-25T14:33:10.184Z,60.63
2016-02-25T14:34:36.048Z,59.78
2016-02-25T14:35:10.767Z,59.68
2016-02-25T14:36:42.929Z,59.78
2016-02-25T14:37:21.289Z,59.4
2016-02-25T14:38:46.966Z,59.88
2016-02-25T14:39:30.919Z,60.25
2016-02-25T14:40:56.425Z,60.82
2016-02-25T14:42:11.771Z,62.15
2016-02-25T14:43:11.836Z,62.34
2016-02-25T14:44:24.525Z,62.82
2016-02-25T14:45:18.091Z,63.29
2016-02-25T14:46:31.297Z,63.76
2016-02-25T14:47:34.630Z,64.62
2016-02-25T14:48:34.743Z,65.47
2016-02-25T14:50:00.589Z,66.29
2016-02-25T14:50:45.295Z,66.96
2016-02-25T14:53:54.662Z,72.55
2016-02-25T14:54:29.677Z,73.5
2016-02-25T14:56:40.060Z,77.29
2016-02-25T14:57:40.283Z,78.72
2016-02-25T14:58:40.129Z,79.06
2016-02-25T14:59:40.084Z,78.72
2016-02-25T15:00:40.119Z,78.81
2016-02-25T15:01:52.824Z,78.91
2016-02-25T15:02:40.420Z,78.34
2016-02-25T15:04:56.036Z,75.49
2016-02-25T15:07:05.682Z,73.31
2016-02-25T15:08:05.700Z,72.84
2016-02-25T15:09:05.718Z,72.93
2016-02-25T15:10:31.409Z,72.55